sensor_id;sensor_type;location;lat;lon;timestamp;P1;P2;P0
73973;PMS5003;62336;-26.094;27.994;2023-04-03T00:00:13;35;35;
73973;PMS5003;62336;-26.094;27.994;2023-04-03T00:02:39;32;31;
73973;PMS5003;62336;-26.094;27.994;2023-04-03T00:05:05;35;33;
73973;PMS5003;62336;-26.094;27.994;2023-04-03T00:07:30;31;30;
73973;PMS5003;62336;-26.094;27.994;2023-04-03T00:09:56;35;33;
73973;PMS5003;62336;-26.094;27.994;2023-04-03T00:12:21;30;28;
73973;PMS5003;62336;-26.094;27.994;2023-04-03T00:14:46;37;34;
73973;PMS5003;62336;-26.094;27.994;2023-04-03T00:17:11;31;30;
73973;PMS5003;62336;-26.094;27.994;2023-04-03T00:19:37;34;32;
73973;PMS5003;62336;-26.094;27.994;2023-04-03T00:22:02;33;31;
73973;PMS5003;62336;-26.094;27.994;2023-04-03T00:24:27;34;33;
73973;PMS5003;62336;-26.094;27.994;2023-04-03T00:26:52;30;30;
73973;PMS5003;62336;-26.094;27.994;2023-04-03T00:29:18;35;34;
73973;PMS5003;62336;-26.094;27.994;2023-04-03T00:31:43;27;26;
73973;PMS5003;62336;-26.094;27.994;2023-04-03T00:34:08;28;27;
73973;PMS5003;62336;-26.094;27.994;2023-04-03T00:36:35;29;28;
73973;PMS5003;62336;-26.094;27.994;2023-04-03T00:38:59;28;26;
73973;PMS5003;62336;-26.094;27.994;2023-04-03T00:41:24;27;27;
73973;PMS5003;62336;-26.094;27.994;2023-04-03T00:43:50;27;26;
73973;PMS5003;62336;-26.094;27.994;2023-04-03T00:46:15;28;28;
73973;PMS5003;62336;-26.094;27.994;2023-04-03T00:48:40;26;25;
73973;PMS5003;62336;-26.094;27.994;2023-04-03T00:51:06;26;24;
73973;PMS5003;62336;-26.094;27.994;2023-04-03T00:53:32;27;25;
73973;PMS5003;62336;-26.094;27.994;2023-04-03T00:55:56;26;24;
73973;PMS5003;62336;-26.094;27.994;2023-04-03T00:58:22;26;23;
73973;PMS5003;62336;-26.094;27.994;2023-04-03T01:00:50;29;25;
73973;PMS5003;62336;-26.094;27.994;2023-04-03T01:03:13;23;21;
73973;PMS5003;62336;-26.094;27.994;2023-04-03T01:05:38;22;22;
73973;PMS5003;62336;-26.094;27.994;2023-04-03T01:08:03;17;17;
73973;PMS5003;62336;-26.094;27.994;2023-04-03T01:10:28;19;18;
73973;PMS5003;62336;-26.094;27.994;2023-04-03T01:12:54;18;17;
73973;PMS5003;62336;-26.094;27.994;2023-04-03T01:15:21;15;15;
73973;PMS5003;62336;-26.094;27.994;2023-04-03T01:17:47;16;15;
73973;PMS5003;62336;-26.094;27.994;2023-04-03T01:22:38;12;12;
73973;PMS5003;62336;-26.094;27.994;2023-04-03T01:25:03;15;14;
73973;PMS5003;62336;-26.094;27.994;2023-04-03T01:27:29;13;12;
73973;PMS5003;62336;-26.094;27.994;2023-04-03T01:29:54;15;14;
73973;PMS5003;62336;-26.094;27.994;2023-04-03T01:32:19;15;15;
73973;PMS5003;62336;-26.094;27.994;2023-04-03T01:34:45;12;12;
73973;PMS5003;62336;-26.094;27.994;2023-04-03T01:37:10;11;10;
73973;PMS5003;62336;-26.094;27.994;2023-04-03T01:39:37;13;11;
73973;PMS5003;62336;-26.094;27.994;2023-04-03T01:42:02;14;14;
73973;PMS5003;62336;-26.094;27.994;2023-04-03T01:44:26;13;13;
73973;PMS5003;62336;-26.094;27.994;2023-04-03T01:46:52;14;14;
73973;PMS5003;62336;-26.094;27.994;2023-04-03T01:49:17;12;12;
73973;PMS5003;62336;-26.094;27.994;2023-04-03T01:51:43;11;10;
73973;PMS5003;62336;-26.094;27.994;2023-04-03T01:54:09;12;12;
73973;PMS5003;62336;-26.094;27.994;2023-04-03T01:56:34;12;10;
73973;PMS5003;62336;-26.094;27.994;2023-04-03T01:59:00;12;11;
73973;PMS5003;62336;-26.094;27.994;2023-04-03T02:01:25;9;8;
73973;PMS5003;62336;-26.094;27.994;2023-04-03T02:03:51;11;10;
73973;PMS5003;62336;-26.094;27.994;2023-04-03T02:06:17;10;10;
73973;PMS5003;62336;-26.094;27.994;2023-04-03T02:08:42;13;10;
73973;PMS5003;62336;-26.094;27.994;2023-04-03T02:11:08;11;11;
73973;PMS5003;62336;-26.094;27.994;2023-04-03T02:13:34;10;10;
73973;PMS5003;62336;-26.094;27.994;2023-04-03T02:15:59;10;9;
73973;PMS5003;62336;-26.094;27.994;2023-04-03T02:18:25;11;11;
73973;PMS5003;62336;-26.094;27.994;2023-04-03T02:20:51;11;11;
73973;PMS5003;62336;-26.094;27.994;2023-04-03T02:23:16;12;12;
73973;PMS5003;62336;-26.094;27.994;2023-04-03T02:25:41;13;13;
73973;PMS5003;62336;-26.094;27.994;2023-04-03T02:28:07;11;11;
73973;PMS5003;62336;-26.094;27.994;2023-04-03T02:30:33;13;12;
73973;PMS5003;62336;-26.094;27.994;2023-04-03T02:32:59;14;13;
73973;PMS5003;62336;-26.094;27.994;2023-04-03T02:35:25;15;14;
73973;PMS5003;62336;-26.094;27.994;2023-04-03T02:37:50;13;13;
73973;PMS5003;62336;-26.094;27.994;2023-04-03T02:40:16;12;12;
73973;PMS5003;62336;-26.094;27.994;2023-04-03T02:42:41;17;16;
73973;PMS5003;62336;-26.094;27.994;2023-04-03T02:45:07;14;14;
73973;PMS5003;62336;-26.094;27.994;2023-04-03T02:47:32;15;15;
73973;PMS5003;62336;-26.094;27.994;2023-04-03T02:49:58;17;15;
73973;PMS5003;62336;-26.094;27.994;2023-04-03T02:52:24;12;12;
73973;PMS5003;62336;-26.094;27.994;2023-04-03T02:54:49;12;12;
73973;PMS5003;62336;-26.094;27.994;2023-04-03T02:57:15;16;16;
73973;PMS5003;62336;-26.094;27.994;2023-04-03T02:59:40;21;21;
73973;PMS5003;62336;-26.094;27.994;2023-04-03T03:02:06;16;15;
73973;PMS5003;62336;-26.094;27.994;2023-04-03T03:04:31;14;13;
73973;PMS5003;62336;-26.094;27.994;2023-04-03T03:06:57;17;17;
73973;PMS5003;62336;-26.094;27.994;2023-04-03T03:09:23;17;16;
73973;PMS5003;62336;-26.094;27.994;2023-04-03T03:11:48;18;17;
73973;PMS5003;62336;-26.094;27.994;2023-04-03T03:14:13;16;16;
73973;PMS5003;62336;-26.094;27.994;2023-04-03T03:16:39;15;14;
73973;PMS5003;62336;-26.094;27.994;2023-04-03T03:19:05;18;17;
73973;PMS5003;62336;-26.094;27.994;2023-04-03T03:21:30;20;19;
73973;PMS5003;62336;-26.094;27.994;2023-04-03T03:23:55;21;20;
73973;PMS5003;62336;-26.094;27.994;2023-04-03T03:26:21;20;17;
73973;PMS5003;62336;-26.094;27.994;2023-04-03T03:28:46;18;17;
73973;PMS5003;62336;-26.094;27.994;2023-04-03T03:31:12;19;18;
73973;PMS5003;62336;-26.094;27.994;2023-04-03T03:33:37;16;16;
73973;PMS5003;62336;-26.094;27.994;2023-04-03T03:36:03;20;18;
73973;PMS5003;62336;-26.094;27.994;2023-04-03T03:38:28;20;19;
73973;PMS5003;62336;-26.094;27.994;2023-04-03T03:40:54;22;21;
73973;PMS5003;62336;-26.094;27.994;2023-04-03T03:43:19;22;21;
73973;PMS5003;62336;-26.094;27.994;2023-04-03T03:45:44;25;23;
73973;PMS5003;62336;-26.094;27.994;2023-04-03T03:48:09;20;19;
73973;PMS5003;62336;-26.094;27.994;2023-04-03T03:50:34;22;21;
73973;PMS5003;62336;-26.094;27.994;2023-04-03T03:53:00;22;20;
73973;PMS5003;62336;-26.094;27.994;2023-04-03T03:55:27;25;23;
73973;PMS5003;62336;-26.094;27.994;2023-04-03T03:57:51;22;22;
73973;PMS5003;62336;-26.094;27.994;2023-04-03T04:00:16;23;22;
73973;PMS5003;62336;-26.094;27.994;2023-04-03T04:02:42;25;23;
73973;PMS5003;62336;-26.094;27.994;2023-04-03T04:05:08;27;24;
73973;PMS5003;62336;-26.094;27.994;2023-04-03T04:07:33;27;26;
73973;PMS5003;62336;-26.094;27.994;2023-04-03T04:09:59;29;28;
73973;PMS5003;62336;-26.094;27.994;2023-04-03T04:12:25;25;24;
73973;PMS5003;62336;-26.094;27.994;2023-04-03T04:14:51;28;26;
73973;PMS5003;62336;-26.094;27.994;2023-04-03T04:17:16;23;22;
73973;PMS5003;62336;-26.094;27.994;2023-04-03T04:19:41;25;25;
73973;PMS5003;62336;-26.094;27.994;2023-04-03T04:22:06;27;25;
73973;PMS5003;62336;-26.094;27.994;2023-04-03T04:24:32;30;27;
73973;PMS5003;62336;-26.094;27.994;2023-04-03T04:26:57;26;23;
73973;PMS5003;62336;-26.094;27.994;2023-04-03T04:29:22;34;30;
73973;PMS5003;62336;-26.094;27.994;2023-04-03T04:31:47;30;28;
73973;PMS5003;62336;-26.094;27.994;2023-04-03T04:34:13;30;28;
73973;PMS5003;62336;-26.094;27.994;2023-04-03T04:36:39;32;31;
73973;PMS5003;62336;-26.094;27.994;2023-04-03T04:39:05;31;28;
73973;PMS5003;62336;-26.094;27.994;2023-04-03T04:41:30;31;30;
73973;PMS5003;62336;-26.094;27.994;2023-04-03T04:43:55;34;33;
73973;PMS5003;62336;-26.094;27.994;2023-04-03T04:46:21;25;25;
73973;PMS5003;62336;-26.094;27.994;2023-04-03T04:48:47;31;28;
73973;PMS5003;62336;-26.094;27.994;2023-04-03T04:51:12;36;32;
73973;PMS5003;62336;-26.094;27.994;2023-04-03T04:53:37;33;31;
73973;PMS5003;62336;-26.094;27.994;2023-04-03T04:56:04;28;27;
73973;PMS5003;62336;-26.094;27.994;2023-04-03T04:58:29;35;34;
73973;PMS5003;62336;-26.094;27.994;2023-04-03T05:00:58;33;32;
73973;PMS5003;62336;-26.094;27.994;2023-04-03T05:03:20;33;33;
73973;PMS5003;62336;-26.094;27.994;2023-04-03T05:05:45;34;33;
73973;PMS5003;62336;-26.094;27.994;2023-04-03T05:08:11;39;36;
73973;PMS5003;62336;-26.094;27.994;2023-04-03T05:10:36;32;32;
73973;PMS5003;62336;-26.094;27.994;2023-04-03T05:13:02;33;32;
73973;PMS5003;62336;-26.094;27.994;2023-04-03T05:15:27;36;34;
73973;PMS5003;62336;-26.094;27.994;2023-04-03T05:17:53;37;35;
73973;PMS5003;62336;-26.094;27.994;2023-04-03T05:20:19;35;34;
73973;PMS5003;62336;-26.094;27.994;2023-04-03T05:22:44;32;31;
73973;PMS5003;62336;-26.094;27.994;2023-04-03T05:25:10;37;36;
73973;PMS5003;62336;-26.094;27.994;2023-04-03T05:27:35;37;35;
73973;PMS5003;62336;-26.094;27.994;2023-04-03T05:30:01;39;38;
73973;PMS5003;62336;-26.094;27.994;2023-04-03T05:32:26;39;37;
73973;PMS5003;62336;-26.094;27.994;2023-04-03T05:34:51;40;36;
73973;PMS5003;62336;-26.094;27.994;2023-04-03T05:37:16;36;36;
73973;PMS5003;62336;-26.094;27.994;2023-04-03T05:39:41;39;36;
73973;PMS5003;62336;-26.094;27.994;2023-04-03T05:42:07;35;32;
73973;PMS5003;62336;-26.094;27.994;2023-04-03T05:44:32;33;32;
73973;PMS5003;62336;-26.094;27.994;2023-04-03T05:46:57;39;35;
73973;PMS5003;62336;-26.094;27.994;2023-04-03T05:49:23;35;34;
73973;PMS5003;62336;-26.094;27.994;2023-04-03T05:51:48;36;33;
73973;PMS5003;62336;-26.094;27.994;2023-04-03T05:54:16;34;32;
73973;PMS5003;62336;-26.094;27.994;2023-04-03T05:56:39;35;33;
73973;PMS5003;62336;-26.094;27.994;2023-04-03T05:59:05;33;31;
73973;PMS5003;62336;-26.094;27.994;2023-04-03T06:01:30;34;32;
73973;PMS5003;62336;-26.094;27.994;2023-04-03T06:03:56;31;30;
73973;PMS5003;62336;-26.094;27.994;2023-04-03T06:06:21;34;30;
73973;PMS5003;62336;-26.094;27.994;2023-04-03T06:08:46;24;24;
73973;PMS5003;62336;-26.094;27.994;2023-04-03T06:11:13;30;29;
73973;PMS5003;62336;-26.094;27.994;2023-04-03T06:13:38;28;27;
73973;PMS5003;62336;-26.094;27.994;2023-04-03T06:16:04;25;24;
73973;PMS5003;62336;-26.094;27.994;2023-04-03T06:18:29;33;31;
73973;PMS5003;62336;-26.094;27.994;2023-04-03T06:20:55;29;27;
73973;PMS5003;62336;-26.094;27.994;2023-04-03T06:23:21;22;22;
73973;PMS5003;62336;-26.094;27.994;2023-04-03T06:25:46;31;29;
73973;PMS5003;62336;-26.094;27.994;2023-04-03T06:28:12;26;24;
73973;PMS5003;62336;-26.094;27.994;2023-04-03T06:30:37;24;23;
73973;PMS5003;62336;-26.094;27.994;2023-04-03T06:33:03;20;18;
73973;PMS5003;62336;-26.094;27.994;2023-04-03T06:35:28;23;22;
73973;PMS5003;62336;-26.094;27.994;2023-04-03T06:37:53;23;21;
73973;PMS5003;62336;-26.094;27.994;2023-04-03T06:40:19;25;22;
73973;PMS5003;62336;-26.094;27.994;2023-04-03T06:42:43;18;17;
73973;PMS5003;62336;-26.094;27.994;2023-04-03T06:45:09;19;19;
73973;PMS5003;62336;-26.094;27.994;2023-04-03T06:47:35;22;21;
73973;PMS5003;62336;-26.094;27.994;2023-04-03T06:49:59;20;19;
73973;PMS5003;62336;-26.094;27.994;2023-04-03T06:52:25;23;21;
73973;PMS5003;62336;-26.094;27.994;2023-04-03T06:54:51;21;20;
73973;PMS5003;62336;-26.094;27.994;2023-04-03T06:57:16;24;21;
73973;PMS5003;62336;-26.094;27.994;2023-04-03T06:59:41;20;20;
73973;PMS5003;62336;-26.094;27.994;2023-04-03T07:02:08;26;25;
73973;PMS5003;62336;-26.094;27.994;2023-04-03T07:04:32;22;20;
73973;PMS5003;62336;-26.094;27.994;2023-04-03T07:06:58;28;27;
73973;PMS5003;62336;-26.094;27.994;2023-04-03T07:09:23;22;21;
73973;PMS5003;62336;-26.094;27.994;2023-04-03T07:11:48;23;23;
73973;PMS5003;62336;-26.094;27.994;2023-04-03T07:14:14;27;24;
73973;PMS5003;62336;-26.094;27.994;2023-04-03T07:16:40;23;22;
73973;PMS5003;62336;-26.094;27.994;2023-04-03T07:19:05;28;26;
73973;PMS5003;62336;-26.094;27.994;2023-04-03T07:21:31;23;22;
73973;PMS5003;62336;-26.094;27.994;2023-04-03T07:23:56;25;24;
73973;PMS5003;62336;-26.094;27.994;2023-04-03T07:26:21;21;21;
73973;PMS5003;62336;-26.094;27.994;2023-04-03T07:28:46;22;21;
73973;PMS5003;62336;-26.094;27.994;2023-04-03T07:31:11;23;21;
73973;PMS5003;62336;-26.094;27.994;2023-04-03T07:33:37;28;27;
73973;PMS5003;62336;-26.094;27.994;2023-04-03T07:36:03;21;20;
73973;PMS5003;62336;-26.094;27.994;2023-04-03T07:38:27;18;16;
73973;PMS5003;62336;-26.094;27.994;2023-04-03T07:40:53;24;23;
73973;PMS5003;62336;-26.094;27.994;2023-04-03T07:43:19;25;24;
73973;PMS5003;62336;-26.094;27.994;2023-04-03T07:45:44;23;22;
73973;PMS5003;62336;-26.094;27.994;2023-04-03T07:48:09;21;21;
73973;PMS5003;62336;-26.094;27.994;2023-04-03T07:50:34;24;23;
73973;PMS5003;62336;-26.094;27.994;2023-04-03T07:52:59;22;21;
73973;PMS5003;62336;-26.094;27.994;2023-04-03T07:55:25;21;21;
73973;PMS5003;62336;-26.094;27.994;2023-04-03T07:57:50;21;19;
73973;PMS5003;62336;-26.094;27.994;2023-04-03T08:00:15;23;21;
73973;PMS5003;62336;-26.094;27.994;2023-04-03T08:02:40;21;21;
73973;PMS5003;62336;-26.094;27.994;2023-04-03T08:05:05;22;21;
73973;PMS5003;62336;-26.094;27.994;2023-04-03T08:07:30;18;17;
73973;PMS5003;62336;-26.094;27.994;2023-04-03T08:09:56;20;19;
73973;PMS5003;62336;-26.094;27.994;2023-04-03T08:12:21;22;21;
73973;PMS5003;62336;-26.094;27.994;2023-04-03T08:14:47;21;20;
73973;PMS5003;62336;-26.094;27.994;2023-04-03T08:17:12;21;20;
73973;PMS5003;62336;-26.094;27.994;2023-04-03T08:19:38;24;24;
73973;PMS5003;62336;-26.094;27.994;2023-04-03T08:22:04;22;21;
73973;PMS5003;62336;-26.094;27.994;2023-04-03T08:24:29;21;21;
73973;PMS5003;62336;-26.094;27.994;2023-04-03T08:26:54;24;23;
73973;PMS5003;62336;-26.094;27.994;2023-04-03T08:29:20;24;22;
73973;PMS5003;62336;-26.094;27.994;2023-04-03T08:31:45;24;23;
73973;PMS5003;62336;-26.094;27.994;2023-04-03T08:34:11;28;26;
73973;PMS5003;62336;-26.094;27.994;2023-04-03T08:36:36;24;23;
73973;PMS5003;62336;-26.094;27.994;2023-04-03T08:39:02;24;21;
73973;PMS5003;62336;-26.094;27.994;2023-04-03T08:41:29;28;28;
73973;PMS5003;62336;-26.094;27.994;2023-04-03T08:43:55;27;25;
73973;PMS5003;62336;-26.094;27.994;2023-04-03T08:46:17;28;27;
73973;PMS5003;62336;-26.094;27.994;2023-04-03T08:48:43;27;23;
73973;PMS5003;62336;-26.094;27.994;2023-04-03T08:51:11;31;30;
73973;PMS5003;62336;-26.094;27.994;2023-04-03T08:53:35;31;28;
73973;PMS5003;62336;-26.094;27.994;2023-04-03T08:55:59;27;26;
73973;PMS5003;62336;-26.094;27.994;2023-04-03T08:58:25;30;29;
73973;PMS5003;62336;-26.094;27.994;2023-04-03T09:00:50;26;26;
73973;PMS5003;62336;-26.094;27.994;2023-04-03T09:03:16;29;29;
73973;PMS5003;62336;-26.094;27.994;2023-04-03T09:05:41;26;25;
73973;PMS5003;62336;-26.094;27.994;2023-04-03T09:08:07;27;26;
73973;PMS5003;62336;-26.094;27.994;2023-04-03T09:10:32;27;27;
73973;PMS5003;62336;-26.094;27.994;2023-04-03T09:12:59;26;26;
73973;PMS5003;62336;-26.094;27.994;2023-04-03T09:15:23;27;27;
73973;PMS5003;62336;-26.094;27.994;2023-04-03T09:17:53;28;27;
73973;PMS5003;62336;-26.094;27.994;2023-04-03T09:20:17;31;30;
73973;PMS5003;62336;-26.094;27.994;2023-04-03T09:22:40;31;28;
73973;PMS5003;62336;-26.094;27.994;2023-04-03T09:25:07;31;30;
73973;PMS5003;62336;-26.094;27.994;2023-04-03T09:27:29;32;30;
73973;PMS5003;62336;-26.094;27.994;2023-04-03T09:29:55;34;33;
73973;PMS5003;62336;-26.094;27.994;2023-04-03T09:32:22;31;28;
73973;PMS5003;62336;-26.094;27.994;2023-04-03T09:34:46;31;31;
73973;PMS5003;62336;-26.094;27.994;2023-04-03T09:37:11;29;27;
73973;PMS5003;62336;-26.094;27.994;2023-04-03T09:42:04;28;27;
73973;PMS5003;62336;-26.094;27.994;2023-04-03T09:44:29;35;32;
73973;PMS5003;62336;-26.094;27.994;2023-04-03T09:46:53;34;32;
73973;PMS5003;62336;-26.094;27.994;2023-04-03T09:49:19;40;38;
73973;PMS5003;62336;-26.094;27.994;2023-04-03T09:51:45;35;32;
73973;PMS5003;62336;-26.094;27.994;2023-04-03T09:56:36;34;33;
73973;PMS5003;62336;-26.094;27.994;2023-04-03T09:59:07;34;33;
73973;PMS5003;62336;-26.094;27.994;2023-04-03T10:01:28;35;31;
73973;PMS5003;62336;-26.094;27.994;2023-04-03T10:06:21;34;34;
73973;PMS5003;62336;-26.094;27.994;2023-04-03T10:08:43;34;32;
73973;PMS5003;62336;-26.094;27.994;2023-04-03T10:11:11;34;32;
73973;PMS5003;62336;-26.094;27.994;2023-04-03T10:13:34;32;31;
73973;PMS5003;62336;-26.094;27.994;2023-04-03T10:16:01;31;31;
73973;PMS5003;62336;-26.094;27.994;2023-04-03T10:18:29;34;34;
73973;PMS5003;62336;-26.094;27.994;2023-04-03T10:20:51;32;30;
73973;PMS5003;62336;-26.094;27.994;2023-04-03T10:23:18;31;27;
73973;PMS5003;62336;-26.094;27.994;2023-04-03T10:25:43;35;32;
73973;PMS5003;62336;-26.094;27.994;2023-04-03T10:28:09;31;30;
73973;PMS5003;62336;-26.094;27.994;2023-04-03T10:30:36;28;27;
73973;PMS5003;62336;-26.094;27.994;2023-04-03T10:33:02;31;28;
73973;PMS5003;62336;-26.094;27.994;2023-04-03T10:35:28;29;29;
73973;PMS5003;62336;-26.094;27.994;2023-04-03T10:37:53;27;27;
73973;PMS5003;62336;-26.094;27.994;2023-04-03T10:40:19;32;30;
73973;PMS5003;62336;-26.094;27.994;2023-04-03T10:42:42;33;32;
73973;PMS5003;62336;-26.094;27.994;2023-04-03T10:45:13;31;30;
73973;PMS5003;62336;-26.094;27.994;2023-04-03T10:47:34;29;29;
73973;PMS5003;62336;-26.094;27.994;2023-04-03T10:50:00;26;26;
73973;PMS5003;62336;-26.094;27.994;2023-04-03T10:52:23;32;32;
73973;PMS5003;62336;-26.094;27.994;2023-04-03T10:54:52;35;33;
73973;PMS5003;62336;-26.094;27.994;2023-04-03T10:57:14;30;30;
73973;PMS5003;62336;-26.094;27.994;2023-04-03T10:59:41;32;28;
73973;PMS5003;62336;-26.094;27.994;2023-04-03T11:02:06;33;31;
73973;PMS5003;62336;-26.094;27.994;2023-04-03T11:04:31;33;31;
73973;PMS5003;62336;-26.094;27.994;2023-04-03T11:06:57;33;31;
73973;PMS5003;62336;-26.094;27.994;2023-04-03T11:09:22;36;35;
73973;PMS5003;62336;-26.094;27.994;2023-04-03T11:11:47;29;26;
73973;PMS5003;62336;-26.094;27.994;2023-04-03T11:14:14;29;27;
73973;PMS5003;62336;-26.094;27.994;2023-04-03T11:16:39;26;25;
73973;PMS5003;62336;-26.094;27.994;2023-04-03T11:19:05;28;26;
73973;PMS5003;62336;-26.094;27.994;2023-04-03T11:21:33;27;27;
73973;PMS5003;62336;-26.094;27.994;2023-04-03T11:23:56;29;28;
73973;PMS5003;62336;-26.094;27.994;2023-04-03T11:26:21;32;30;
73973;PMS5003;62336;-26.094;27.994;2023-04-03T11:28:47;27;25;
73973;PMS5003;62336;-26.094;27.994;2023-04-03T11:31:18;30;30;
73973;PMS5003;62336;-26.094;27.994;2023-04-03T11:33:40;26;25;
73973;PMS5003;62336;-26.094;27.994;2023-04-03T11:36:04;23;23;
73973;PMS5003;62336;-26.094;27.994;2023-04-03T11:38:30;26;23;
73973;PMS5003;62336;-26.094;27.994;2023-04-03T11:40:55;27;26;
73973;PMS5003;62336;-26.094;27.994;2023-04-03T11:43:21;29;27;
73973;PMS5003;62336;-26.094;27.994;2023-04-03T11:45:50;25;23;
73973;PMS5003;62336;-26.094;27.994;2023-04-03T11:50:41;25;24;
73973;PMS5003;62336;-26.094;27.994;2023-04-03T11:53:03;27;26;
73973;PMS5003;62336;-26.094;27.994;2023-04-03T12:02:43;23;23;
73973;PMS5003;62336;-26.094;27.994;2023-04-03T12:07:35;26;24;
73973;PMS5003;62336;-26.094;27.994;2023-04-03T12:10:00;26;26;
73973;PMS5003;62336;-26.094;27.994;2023-04-03T12:12:29;24;24;
73973;PMS5003;62336;-26.094;27.994;2023-04-03T12:14:50;30;28;
73973;PMS5003;62336;-26.094;27.994;2023-04-03T12:17:19;24;22;
73973;PMS5003;62336;-26.094;27.994;2023-04-03T12:19:41;26;26;
73973;PMS5003;62336;-26.094;27.994;2023-04-03T12:22:08;29;27;
73973;PMS5003;62336;-26.094;27.994;2023-04-03T12:24:32;24;24;
73973;PMS5003;62336;-26.094;27.994;2023-04-03T12:29:24;21;20;
73973;PMS5003;62336;-26.094;27.994;2023-04-03T12:31:52;23;22;
73973;PMS5003;62336;-26.094;27.994;2023-04-03T12:34:17;22;22;
73973;PMS5003;62336;-26.094;27.994;2023-04-03T12:36:41;22;20;
73973;PMS5003;62336;-26.094;27.994;2023-04-03T12:39:06;26;24;
73973;PMS5003;62336;-26.094;27.994;2023-04-03T12:41:32;27;25;
73973;PMS5003;62336;-26.094;27.994;2023-04-03T12:44:00;21;21;
73973;PMS5003;62336;-26.094;27.994;2023-04-03T12:46:21;21;21;
73973;PMS5003;62336;-26.094;27.994;2023-04-03T12:48:47;22;22;
73973;PMS5003;62336;-26.094;27.994;2023-04-03T12:51:13;24;23;
73973;PMS5003;62336;-26.094;27.994;2023-04-03T12:53:36;25;23;
73973;PMS5003;62336;-26.094;27.994;2023-04-03T12:58:27;24;23;
73973;PMS5003;62336;-26.094;27.994;2023-04-03T13:00:59;26;26;
73973;PMS5003;62336;-26.094;27.994;2023-04-03T13:03:21;29;28;
73973;PMS5003;62336;-26.094;27.994;2023-04-03T13:05:44;25;25;
73973;PMS5003;62336;-26.094;27.994;2023-04-03T13:08:10;24;23;
73973;PMS5003;62336;-26.094;27.994;2023-04-03T13:10:35;24;23;
73973;PMS5003;62336;-26.094;27.994;2023-04-03T13:13:06;27;25;
73973;PMS5003;62336;-26.094;27.994;2023-04-03T13:15:25;24;24;
73973;PMS5003;62336;-26.094;27.994;2023-04-03T13:17:51;22;22;
73973;PMS5003;62336;-26.094;27.994;2023-04-03T13:20:18;23;21;
73973;PMS5003;62336;-26.094;27.994;2023-04-03T13:22:42;27;25;
73973;PMS5003;62336;-26.094;27.994;2023-04-03T13:25:07;25;24;
73973;PMS5003;62336;-26.094;27.994;2023-04-03T13:27:31;23;22;
73973;PMS5003;62336;-26.094;27.994;2023-04-03T13:29:57;22;20;
73973;PMS5003;62336;-26.094;27.994;2023-04-03T13:32:23;28;26;
73973;PMS5003;62336;-26.094;27.994;2023-04-03T13:34:47;24;24;
73973;PMS5003;62336;-26.094;27.994;2023-04-03T13:39:39;27;26;
73973;PMS5003;62336;-26.094;27.994;2023-04-03T13:44:31;21;19;
73973;PMS5003;62336;-26.094;27.994;2023-04-03T13:46:54;22;21;
73973;PMS5003;62336;-26.094;27.994;2023-04-03T13:49:20;21;21;
73973;PMS5003;62336;-26.094;27.994;2023-04-03T13:51:45;24;23;
73973;PMS5003;62336;-26.094;27.994;2023-04-03T13:54:16;23;23;
73973;PMS5003;62336;-26.094;27.994;2023-04-03T13:56:37;24;24;
73973;PMS5003;62336;-26.094;27.994;2023-04-03T13:59:05;26;24;
73973;PMS5003;62336;-26.094;27.994;2023-04-03T14:03:54;25;24;
73973;PMS5003;62336;-26.094;27.994;2023-04-03T14:06:18;24;23;
73973;PMS5003;62336;-26.094;27.994;2023-04-03T14:08:44;25;23;
73973;PMS5003;62336;-26.094;27.994;2023-04-03T14:11:13;26;25;
73973;PMS5003;62336;-26.094;27.994;2023-04-03T14:13:36;24;24;
73973;PMS5003;62336;-26.094;27.994;2023-04-03T14:16:01;24;23;
73973;PMS5003;62336;-26.094;27.994;2023-04-03T14:18:26;28;27;
73973;PMS5003;62336;-26.094;27.994;2023-04-03T14:20:51;26;25;
73973;PMS5003;62336;-26.094;27.994;2023-04-03T14:23:17;30;30;
73973;PMS5003;62336;-26.094;27.994;2023-04-03T14:25:42;32;29;
73973;PMS5003;62336;-26.094;27.994;2023-04-03T14:28:14;31;28;
73973;PMS5003;62336;-26.094;27.994;2023-04-03T14:30:34;32;31;
73973;PMS5003;62336;-26.094;27.994;2023-04-03T14:32:59;35;33;
73973;PMS5003;62336;-26.094;27.994;2023-04-03T14:35:25;29;29;
73973;PMS5003;62336;-26.094;27.994;2023-04-03T14:37:50;29;28;
73973;PMS5003;62336;-26.094;27.994;2023-04-03T14:40:16;32;31;
73973;PMS5003;62336;-26.094;27.994;2023-04-03T14:42:40;27;27;
73973;PMS5003;62336;-26.094;27.994;2023-04-03T14:45:08;31;30;
73973;PMS5003;62336;-26.094;27.994;2023-04-03T14:47:32;34;32;
73973;PMS5003;62336;-26.094;27.994;2023-04-03T14:49:58;30;28;
73973;PMS5003;62336;-26.094;27.994;2023-04-03T14:52:24;31;30;
73973;PMS5003;62336;-26.094;27.994;2023-04-03T14:54:48;32;32;
73973;PMS5003;62336;-26.094;27.994;2023-04-03T14:57:14;29;28;
73973;PMS5003;62336;-26.094;27.994;2023-04-03T14:59:39;31;29;
73973;PMS5003;62336;-26.094;27.994;2023-04-03T15:02:09;30;29;
73973;PMS5003;62336;-26.094;27.994;2023-04-03T15:04:29;33;31;
73973;PMS5003;62336;-26.094;27.994;2023-04-03T15:06:55;30;28;
73973;PMS5003;62336;-26.094;27.994;2023-04-03T15:09:21;31;31;
73973;PMS5003;62336;-26.094;27.994;2023-04-03T15:11:46;28;28;
73973;PMS5003;62336;-26.094;27.994;2023-04-03T15:14:11;31;29;
73973;PMS5003;62336;-26.094;27.994;2023-04-03T15:16:36;35;34;
73973;PMS5003;62336;-26.094;27.994;2023-04-03T15:19:02;31;29;
73973;PMS5003;62336;-26.094;27.994;2023-04-03T15:21:27;33;32;
73973;PMS5003;62336;-26.094;27.994;2023-04-03T15:23:53;31;31;
73973;PMS5003;62336;-26.094;27.994;2023-04-03T15:26:19;32;32;
73973;PMS5003;62336;-26.094;27.994;2023-04-03T15:28:44;33;32;
73973;PMS5003;62336;-26.094;27.994;2023-04-03T15:31:10;36;34;
73973;PMS5003;62336;-26.094;27.994;2023-04-03T15:33:36;39;36;
73973;PMS5003;62336;-26.094;27.994;2023-04-03T15:36:01;32;30;
73973;PMS5003;62336;-26.094;27.994;2023-04-03T15:38:26;36;34;
73973;PMS5003;62336;-26.094;27.994;2023-04-03T15:40:52;37;36;
73973;PMS5003;62336;-26.094;27.994;2023-04-03T15:43:17;34;33;
73973;PMS5003;62336;-26.094;27.994;2023-04-03T15:45:43;32;31;
73973;PMS5003;62336;-26.094;27.994;2023-04-03T15:48:08;35;32;
73973;PMS5003;62336;-26.094;27.994;2023-04-03T15:50:33;40;35;
73973;PMS5003;62336;-26.094;27.994;2023-04-03T15:52:58;40;36;
73973;PMS5003;62336;-26.094;27.994;2023-04-03T15:55:24;39;37;
73973;PMS5003;62336;-26.094;27.994;2023-04-03T15:57:49;34;32;
73973;PMS5003;62336;-26.094;27.994;2023-04-03T16:00:14;34;32;
73973;PMS5003;62336;-26.094;27.994;2023-04-03T16:02:40;33;32;
73973;PMS5003;62336;-26.094;27.994;2023-04-03T16:05:06;35;33;
73973;PMS5003;62336;-26.094;27.994;2023-04-03T16:07:31;34;32;